Flight Track Log - Related Links

Times and Time Zones

All times are in EDT time to prevent confusion due to time zone crossing. See the CTL13 flight status page for this flight to view local times or setup timezone preferences in your user account.

Time Position Orientation Groundspeed Altitude Reporting Facility
EDT Latitude Longitude Course Direction KTS MPH feet Rate Location/Type
Wed 08:27:27 PM 39.8833 -86.2833 360° North 134 154 2,000  Level Indianapolis TRACON
Wed 08:28:14 PM 39.9189 -86.2964 344° North 182 209 2,500 550 Climbing Chicago Center
Wed 08:29:16 PM 39.9475 -86.3297 318° Northwest 139 160 3,000 484 Climbing Chicago Center
Wed 08:30:18 PM 39.9758 -86.3636 317° Northwest 139 160 3,500 484 Climbing Chicago Center
Wed 08:31:20 PM 40.0044 -86.3981 317° Northwest 139 160 4,000 439 Climbing Chicago Center
Wed 08:32:21 PM 40.0400 -86.4411 317° Northwest 142 163 4,400 372 Climbing Chicago Center
Wed 08:33:29 PM 40.0703 -86.4764 318° Northwest 146 168 4,800 372 Climbing Indianapolis Center
Wed 08:34:30 PM 40.1006 -86.5117 318° Northwest 147 169 5,200 407 Climbing Indianapolis Center
Wed 08:35:27 PM 40.1333 -86.5478 320° Northwest 149 171 5,600 403 Climbing Chicago Center
Wed 08:36:29 PM 40.1639 -86.5831 319° Northwest 149 171 6,000 194 Climbing Chicago Center
Wed 08:37:31 PM 40.1972 -86.6222 318° Northwest 156 180 6,000  Level Chicago Center
Wed 08:37:53 PM 40.2153 -86.6400 323° Northwest 160 184 6,000  Level Chicago Center
Wed 08:38:33 PM 40.2433 -86.6556 337° Northwest 159 183 6,000  Level Chicago Center
Wed 08:38:53 PM 40.2519 -86.6667 315° West 156 180 6,000  Level Chicago Center
Wed 08:39:35 PM 40.2819 -86.6822 338° Northwest 158 182 6,000  Level Chicago Center
Wed 08:39:54 PM 40.2928 -86.6939 321° Northwest 155 178 6,000  Level Chicago Center
Wed 08:40:36 PM 40.3178 -86.7100 334° Northwest 152 175 6,000  Level Chicago Center
Wed 08:40:54 PM 40.3272 -86.7206 320° Northwest 154 177 6,000  Level Chicago Center
Wed 08:41:38 PM 40.3547 -86.7381 334° Northwest 154 177 6,000  Level Chicago Center
Wed 08:41:55 PM 40.3658 -86.7475 327° Northwest 151 174 6,000 -97 Level Chicago Center
Wed 08:42:40 PM 40.3908 -86.7661 330° Northwest 153 176 5,900  Descending Chicago Center
Wed 08:42:56 PM 40.4044 -86.7772 328° Northwest 152 175 6,000 97 Climbing Chicago Center
Wed 08:43:42 PM 40.4275 -86.7919 334° Northwest 151 174 6,000  Level Chicago Center
Wed 08:44:44 PM 40.4706 -86.8261 329° Northwest 152 175 6,000  Level Chicago Center
Wed 08:45:46 PM 40.5089 -86.8536 331° Northwest 158 182 6,000  Level Chicago Center
Wed 08:46:48 PM 40.5444 -86.8814 329° Northwest 150 173 6,000  Level Chicago Center
Wed 08:47:50 PM 40.5822 -86.9100 330° Northwest 157 181 6,000  Level Chicago Center
Wed 08:48:52 PM 40.6203 -86.9375 331° Northwest 157 181 6,000  Level Chicago Center
Wed 08:49:54 PM 40.6586 -86.9636 333° Northwest 157 181 6,000  Level Chicago Center
Wed 08:50:56 PM 40.7031 -86.9978 330° Northwest 158 182 6,000  Level Chicago Center
Wed 08:51:58 PM 40.7436 -87.0228 335° Northwest 158 182 6,000  Level Chicago Center
Wed 08:53:00 PM 40.7806 -87.0508 330° Northwest 155 178 6,000  Level Chicago Center
Wed 08:54:01 PM 40.8175 -87.0794 330° Northwest 156 180 6,000  Level Chicago Center
Wed 08:55:03 PM 40.8547 -87.1047 333° Northwest 153 176 6,000  Level Chicago Center
Wed 08:56:05 PM 40.8917 -87.1333 330° Northwest 156 180 6,000  Level Chicago Center
Wed 08:57:07 PM 40.9372 -87.1622 334° Northwest 152 175 6,000  Level Chicago Center
Wed 08:58:09 PM 40.9731 -87.1875 332° Northwest 147 169 6,000  Level Chicago Center
Wed 08:59:11 PM 41.0094 -87.2136 332° Northwest 150 173 6,000  Level Chicago Center
Wed 09:00:13 PM 41.0469 -87.2406 332° Northwest 153 176 6,000  Level Chicago Center
Wed 09:01:15 PM 41.0839 -87.2683 330° Northwest 153 176 6,000 -97 Level Chicago Center
Wed 09:02:17 PM 41.1269 -87.3003 331° Northwest 151 174 5,800 -726 Descending Chicago Center
Wed 09:03:19 PM 41.1692 -87.3339 329° Northwest 167 192 4,500 -871 Descending Chicago Center
Wed 09:04:21 PM 41.2183 -87.3656 334° Northwest 184 212 4,000 -242 Descending Chicago Center
Wed 09:05:23 PM 41.2600 -87.3947 332° Northwest 182 209 4,000  Level Chicago Center
Wed 09:06:25 PM 41.2994 -87.4239 331° Northwest 173 199 4,000  Level Chicago Center
Wed 09:07:27 PM 41.3478 -87.4600 331° Northwest 168 193 4,000  Level Chicago Center
Wed 09:08:29 PM 41.3881 -87.4878 333° Northwest 167 192 4,000 -48 Level Chicago Center
Wed 09:09:31 PM 41.4281 -87.5147 333° Northwest 165 190 3,900  Descending Chicago Center
Wed 09:10:33 PM 41.4686 -87.5417 334° Northwest 165 190 4,000  Climbing Chicago Center
Wed 09:11:35 PM 41.5083 -87.5703 332° Northwest 164 189 3,900 -48 Descending Chicago Center
Wed 09:12:37 PM 41.5572 -87.6022 334° Northwest 164 189 3,900 48 Level Chicago Center
Wed 09:13:39 PM 41.5836 -87.6511 306° West 162 186 4,000 -339 Climbing Chicago Center
Wed 09:14:41 PM 41.5942 -87.7106 283° West 176 203 3,200 -532 Descending Chicago Center
Wed 09:15:43 PM 41.5914 -87.7803 267° West 188 216 2,900 -145 Descending Chicago Center
Wed 09:16:45 PM 41.5886 -87.8436 267° West 181 208 2,900  Level Chicago Center
Wed 09:17:47 PM 41.6064 -87.9106 290° West 182 209 2,900 -194 Level Chicago Center
Wed 09:18:49 PM 41.6494 -87.9119 359° North 179 206 2,500 -290 Descending Chicago Center
Wed 09:19:51 PM 41.6878 -87.8761 35° Northeast 174 200 2,300 -67 Descending Chicago Center
Wed 09:20:18 PM 41.7000 -87.8500 58° Northeast 158 182 2,400 -258 Climbing Chicago TRACON
Wed 09:21:24 PM 41.7333 -87.8167 37° Northeast 137 158 1,900 -571 Descending Chicago TRACON
Wed 09:22:24 PM 41.7667 -87.7833 37° Northeast 130 150 1,200 -700 Descending Chicago TRACON
Wed 09:24:00 PM 41.7833 -87.7500 334° Northwest  Level FlightAware Approximate

Login

Don't have an account? Register now (free) for customized features, flight alerts, and more!